sensor_id;sensor_type;location;lat;lon;timestamp;P1;durP1;ratioP1;P2;durP2;ratioP2
60665;SDS011;59128;44.642;21.188;2023-04-06T00:01:09;32.67;;;25.80;;
60665;SDS011;59128;44.642;21.188;2023-04-06T00:03:35;30.60;;;23.38;;
60665;SDS011;59128;44.642;21.188;2023-04-06T00:06:02;30.90;;;24.80;;
60665;SDS011;59128;44.642;21.188;2023-04-06T00:08:28;28.77;;;23.42;;
60665;SDS011;59128;44.642;21.188;2023-04-06T00:10:54;32.15;;;23.92;;
60665;SDS011;59128;44.642;21.188;2023-04-06T00:13:20;30.60;;;23.73;;
60665;SDS011;59128;44.642;21.188;2023-04-06T00:15:46;34.53;;;26.00;;
60665;SDS011;59128;44.642;21.188;2023-04-06T00:18:12;38.60;;;29.15;;
60665;SDS011;59128;44.642;21.188;2023-04-06T00:20:38;38.38;;;28.67;;
60665;SDS011;59128;44.642;21.188;2023-04-06T00:23:04;39.13;;;28.60;;
60665;SDS011;59128;44.642;21.188;2023-04-06T00:25:30;43.10;;;30.10;;
60665;SDS011;59128;44.642;21.188;2023-04-06T00:27:56;41.75;;;31.50;;
60665;SDS011;59128;44.642;21.188;2023-04-06T00:30:22;40.95;;;29.08;;
60665;SDS011;59128;44.642;21.188;2023-04-06T00:32:48;41.75;;;29.25;;
60665;SDS011;59128;44.642;21.188;2023-04-06T00:35:14;33.90;;;26.47;;
60665;SDS011;59128;44.642;21.188;2023-04-06T00:37:40;32.95;;;25.10;;
60665;SDS011;59128;44.642;21.188;2023-04-06T00:40:07;29.57;;;24.03;;
60665;SDS011;59128;44.642;21.188;2023-04-06T00:42:33;29.20;;;23.08;;
60665;SDS011;59128;44.642;21.188;2023-04-06T00:44:59;29.87;;;23.60;;
60665;SDS011;59128;44.642;21.188;2023-04-06T00:47:26;28.97;;;24.37;;
60665;SDS011;59128;44.642;21.188;2023-04-06T00:49:52;31.08;;;24.73;;
60665;SDS011;59128;44.642;21.188;2023-04-06T00:52:18;33.92;;;25.20;;
60665;SDS011;59128;44.642;21.188;2023-04-06T00:54:44;34.92;;;27.30;;
60665;SDS011;59128;44.642;21.188;2023-04-06T00:57:11;36.20;;;27.33;;
60665;SDS011;59128;44.642;21.188;2023-04-06T00:59:38;33.95;;;26.95;;
60665;SDS011;59128;44.642;21.188;2023-04-06T01:02:04;36.20;;;27.58;;
60665;SDS011;59128;44.642;21.188;2023-04-06T01:04:30;37.90;;;29.15;;
60665;SDS011;59128;44.642;21.188;2023-04-06T01:06:56;40.97;;;30.52;;
60665;SDS011;59128;44.642;21.188;2023-04-06T01:09:22;37.15;;;28.85;;
60665;SDS011;59128;44.642;21.188;2023-04-06T01:11:48;34.50;;;27.03;;
60665;SDS011;59128;44.642;21.188;2023-04-06T01:14:14;33.28;;;27.25;;
60665;SDS011;59128;44.642;21.188;2023-04-06T01:16:40;36.17;;;28.80;;
60665;SDS011;59128;44.642;21.188;2023-04-06T01:19:10;35.08;;;27.50;;
60665;SDS011;59128;44.642;21.188;2023-04-06T01:21:36;27.55;;;21.73;;
60665;SDS011;59128;44.642;21.188;2023-04-06T01:24:03;27.65;;;22.38;;
60665;SDS011;59128;44.642;21.188;2023-04-06T01:26:30;25.95;;;21.02;;
60665;SDS011;59128;44.642;21.188;2023-04-06T01:28:56;26.92;;;20.83;;
60665;SDS011;59128;44.642;21.188;2023-04-06T01:31:22;22.67;;;19.40;;
60665;SDS011;59128;44.642;21.188;2023-04-06T01:33:48;22.33;;;17.65;;
60665;SDS011;59128;44.642;21.188;2023-04-06T01:36:15;19.50;;;16.55;;
60665;SDS011;59128;44.642;21.188;2023-04-06T01:38:41;18.20;;;15.65;;
60665;SDS011;59128;44.642;21.188;2023-04-06T01:41:07;17.92;;;15.48;;
60665;SDS011;59128;44.642;21.188;2023-04-06T01:43:33;17.75;;;15.45;;
60665;SDS011;59128;44.642;21.188;2023-04-06T01:45:59;18.98;;;15.40;;
60665;SDS011;59128;44.642;21.188;2023-04-06T01:48:26;16.00;;;14.13;;
60665;SDS011;59128;44.642;21.188;2023-04-06T01:50:52;17.50;;;15.60;;
60665;SDS011;59128;44.642;21.188;2023-04-06T01:53:18;17.45;;;15.65;;
60665;SDS011;59128;44.642;21.188;2023-04-06T01:55:44;18.42;;;15.95;;
60665;SDS011;59128;44.642;21.188;2023-04-06T01:58:11;16.75;;;14.95;;
60665;SDS011;59128;44.642;21.188;2023-04-06T02:00:38;16.57;;;14.73;;
60665;SDS011;59128;44.642;21.188;2023-04-06T02:03:04;16.65;;;14.43;;
60665;SDS011;59128;44.642;21.188;2023-04-06T02:05:31;16.98;;;14.65;;
60665;SDS011;59128;44.642;21.188;2023-04-06T02:08:02;16.70;;;14.85;;
60665;SDS011;59128;44.642;21.188;2023-04-06T02:10:28;15.45;;;13.85;;
60665;SDS011;59128;44.642;21.188;2023-04-06T02:12:54;15.57;;;13.97;;
60665;SDS011;59128;44.642;21.188;2023-04-06T02:15:20;16.50;;;14.70;;
60665;SDS011;59128;44.642;21.188;2023-04-06T02:17:46;16.63;;;14.48;;
60665;SDS011;59128;44.642;21.188;2023-04-06T02:20:12;15.93;;;14.20;;
60665;SDS011;59128;44.642;21.188;2023-04-06T02:22:38;17.02;;;14.52;;
60665;SDS011;59128;44.642;21.188;2023-04-06T02:25:05;17.17;;;15.15;;
60665;SDS011;59128;44.642;21.188;2023-04-06T02:27:31;15.85;;;14.13;;
60665;SDS011;59128;44.642;21.188;2023-04-06T02:29:57;17.88;;;14.85;;
60665;SDS011;59128;44.642;21.188;2023-04-06T02:32:23;16.40;;;14.68;;
60665;SDS011;59128;44.642;21.188;2023-04-06T02:34:49;18.13;;;15.43;;
60665;SDS011;59128;44.642;21.188;2023-04-06T02:37:15;17.48;;;15.27;;
60665;SDS011;59128;44.642;21.188;2023-04-06T02:39:41;18.70;;;15.73;;
60665;SDS011;59128;44.642;21.188;2023-04-06T02:42:07;17.02;;;15.23;;
60665;SDS011;59128;44.642;21.188;2023-04-06T02:44:33;17.52;;;15.43;;
60665;SDS011;59128;44.642;21.188;2023-04-06T02:47:00;16.77;;;14.82;;
60665;SDS011;59128;44.642;21.188;2023-04-06T02:49:26;17.07;;;15.23;;
60665;SDS011;59128;44.642;21.188;2023-04-06T02:51:52;17.63;;;15.82;;
60665;SDS011;59128;44.642;21.188;2023-04-06T02:54:18;17.48;;;15.05;;
60665;SDS011;59128;44.642;21.188;2023-04-06T02:56:44;17.08;;;14.93;;
60665;SDS011;59128;44.642;21.188;2023-04-06T02:59:10;17.27;;;15.00;;
60665;SDS011;59128;44.642;21.188;2023-04-06T03:01:36;16.80;;;15.05;;
60665;SDS011;59128;44.642;21.188;2023-04-06T03:04:02;17.00;;;15.23;;
60665;SDS011;59128;44.642;21.188;2023-04-06T03:06:28;18.13;;;15.20;;
60665;SDS011;59128;44.642;21.188;2023-04-06T03:08:55;16.13;;;14.43;;
60665;SDS011;59128;44.642;21.188;2023-04-06T03:11:21;16.60;;;14.80;;
60665;SDS011;59128;44.642;21.188;2023-04-06T03:13:47;16.48;;;14.77;;
60665;SDS011;59128;44.642;21.188;2023-04-06T03:16:13;17.15;;;15.07;;
60665;SDS011;59128;44.642;21.188;2023-04-06T03:18:39;17.73;;;15.18;;
60665;SDS011;59128;44.642;21.188;2023-04-06T03:21:05;16.55;;;14.48;;
60665;SDS011;59128;44.642;21.188;2023-04-06T03:23:31;17.15;;;15.40;;
60665;SDS011;59128;44.642;21.188;2023-04-06T03:25:57;18.05;;;14.50;;
60665;SDS011;59128;44.642;21.188;2023-04-06T03:28:23;17.15;;;15.35;;
60665;SDS011;59128;44.642;21.188;2023-04-06T03:30:49;17.73;;;15.40;;
60665;SDS011;59128;44.642;21.188;2023-04-06T03:33:15;16.75;;;14.57;;
60665;SDS011;59128;44.642;21.188;2023-04-06T03:35:41;16.00;;;14.30;;
60665;SDS011;59128;44.642;21.188;2023-04-06T03:38:07;16.10;;;14.25;;
60665;SDS011;59128;44.642;21.188;2023-04-06T03:40:33;17.33;;;15.13;;
60665;SDS011;59128;44.642;21.188;2023-04-06T03:42:59;16.50;;;14.77;;
60665;SDS011;59128;44.642;21.188;2023-04-06T03:45:25;16.92;;;14.77;;
60665;SDS011;59128;44.642;21.188;2023-04-06T03:47:51;16.92;;;14.68;;
60665;SDS011;59128;44.642;21.188;2023-04-06T03:50:17;16.25;;;14.55;;
60665;SDS011;59128;44.642;21.188;2023-04-06T03:52:43;16.23;;;14.52;;
60665;SDS011;59128;44.642;21.188;2023-04-06T03:55:09;17.37;;;14.67;;
60665;SDS011;59128;44.642;21.188;2023-04-06T03:57:35;15.68;;;14.00;;
60665;SDS011;59128;44.642;21.188;2023-04-06T04:00:02;18.65;;;15.20;;
60665;SDS011;59128;44.642;21.188;2023-04-06T04:02:28;17.33;;;15.00;;
60665;SDS011;59128;44.642;21.188;2023-04-06T04:04:54;16.35;;;14.65;;
60665;SDS011;59128;44.642;21.188;2023-04-06T04:07:20;16.20;;;14.50;;
60665;SDS011;59128;44.642;21.188;2023-04-06T04:09:46;17.50;;;15.50;;
60665;SDS011;59128;44.642;21.188;2023-04-06T04:12:12;16.95;;;15.13;;
60665;SDS011;59128;44.642;21.188;2023-04-06T04:14:40;22.60;;;17.88;;
60665;SDS011;59128;44.642;21.188;2023-04-06T04:17:06;20.23;;;16.40;;
60665;SDS011;59128;44.642;21.188;2023-04-06T04:19:32;18.08;;;15.30;;
60665;SDS011;59128;44.642;21.188;2023-04-06T04:21:58;17.45;;;15.45;;
60665;SDS011;59128;44.642;21.188;2023-04-06T04:24:24;17.40;;;15.55;;
60665;SDS011;59128;44.642;21.188;2023-04-06T04:26:50;19.35;;;15.75;;
60665;SDS011;59128;44.642;21.188;2023-04-06T04:29:16;17.38;;;15.40;;
60665;SDS011;59128;44.642;21.188;2023-04-06T04:31:44;16.90;;;14.73;;
60665;SDS011;59128;44.642;21.188;2023-04-06T04:34:10;19.08;;;16.05;;
60665;SDS011;59128;44.642;21.188;2023-04-06T04:36:36;17.27;;;15.45;;
60665;SDS011;59128;44.642;21.188;2023-04-06T04:39:03;17.27;;;15.47;;
60665;SDS011;59128;44.642;21.188;2023-04-06T04:41:29;17.73;;;15.65;;
60665;SDS011;59128;44.642;21.188;2023-04-06T04:43:55;17.10;;;15.40;;
60665;SDS011;59128;44.642;21.188;2023-04-06T04:46:21;18.52;;;16.52;;
60665;SDS011;59128;44.642;21.188;2023-04-06T04:48:47;17.67;;;15.85;;
60665;SDS011;59128;44.642;21.188;2023-04-06T04:51:13;18.58;;;16.63;;
60665;SDS011;59128;44.642;21.188;2023-04-06T04:53:39;17.98;;;16.15;;
60665;SDS011;59128;44.642;21.188;2023-04-06T04:56:05;18.37;;;16.37;;
60665;SDS011;59128;44.642;21.188;2023-04-06T04:58:31;18.83;;;16.80;;
60665;SDS011;59128;44.642;21.188;2023-04-06T05:00:57;18.67;;;16.70;;
60665;SDS011;59128;44.642;21.188;2023-04-06T05:03:24;19.70;;;17.57;;
60665;SDS011;59128;44.642;21.188;2023-04-06T05:05:50;21.00;;;17.92;;
60665;SDS011;59128;44.642;21.188;2023-04-06T05:08:16;19.57;;;17.50;;
60665;SDS011;59128;44.642;21.188;2023-04-06T05:10:42;20.45;;;18.25;;
60665;SDS011;59128;44.642;21.188;2023-04-06T05:13:09;19.27;;;17.17;;
60665;SDS011;59128;44.642;21.188;2023-04-06T05:15:35;18.30;;;16.40;;
60665;SDS011;59128;44.642;21.188;2023-04-06T05:18:05;19.08;;;17.08;;
60665;SDS011;59128;44.642;21.188;2023-04-06T05:20:31;20.35;;;16.85;;
60665;SDS011;59128;44.642;21.188;2023-04-06T05:22:57;19.77;;;17.08;;
60665;SDS011;59128;44.642;21.188;2023-04-06T05:25:23;19.30;;;17.27;;
60665;SDS011;59128;44.642;21.188;2023-04-06T05:27:49;19.13;;;17.13;;
60665;SDS011;59128;44.642;21.188;2023-04-06T05:30:15;18.48;;;16.52;;
60665;SDS011;59128;44.642;21.188;2023-04-06T05:32:41;19.25;;;17.25;;
60665;SDS011;59128;44.642;21.188;2023-04-06T05:35:09;18.08;;;16.13;;
60665;SDS011;59128;44.642;21.188;2023-04-06T05:37:35;19.93;;;17.20;;
60665;SDS011;59128;44.642;21.188;2023-04-06T05:40:01;20.10;;;18.00;;
60665;SDS011;59128;44.642;21.188;2023-04-06T05:42:27;23.43;;;21.03;;
60665;SDS011;59128;44.642;21.188;2023-04-06T05:44:54;20.63;;;18.38;;
60665;SDS011;59128;44.642;21.188;2023-04-06T05:47:21;19.25;;;17.17;;
60665;SDS011;59128;44.642;21.188;2023-04-06T05:49:47;20.15;;;17.17;;
60665;SDS011;59128;44.642;21.188;2023-04-06T05:52:13;19.70;;;17.60;;
60665;SDS011;59128;44.642;21.188;2023-04-06T05:54:39;19.75;;;17.55;;
60665;SDS011;59128;44.642;21.188;2023-04-06T05:57:05;19.95;;;17.63;;
60665;SDS011;59128;44.642;21.188;2023-04-06T05:59:31;19.15;;;17.05;;
60665;SDS011;59128;44.642;21.188;2023-04-06T06:01:57;19.75;;;17.48;;
60665;SDS011;59128;44.642;21.188;2023-04-06T06:04:23;19.67;;;17.50;;
60665;SDS011;59128;44.642;21.188;2023-04-06T06:06:49;19.90;;;16.90;;
60665;SDS011;59128;44.642;21.188;2023-04-06T06:09:15;19.55;;;17.45;;
60665;SDS011;59128;44.642;21.188;2023-04-06T06:11:41;19.40;;;17.33;;
60665;SDS011;59128;44.642;21.188;2023-04-06T06:14:07;20.10;;;17.13;;
60665;SDS011;59128;44.642;21.188;2023-04-06T06:16:33;20.65;;;17.40;;
60665;SDS011;59128;44.642;21.188;2023-04-06T06:19:00;19.25;;;17.23;;
60665;SDS011;59128;44.642;21.188;2023-04-06T06:21:26;21.80;;;17.20;;
60665;SDS011;59128;44.642;21.188;2023-04-06T06:23:52;19.83;;;16.88;;
60665;SDS011;59128;44.642;21.188;2023-04-06T06:26:19;19.63;;;17.53;;
60665;SDS011;59128;44.642;21.188;2023-04-06T06:28:46;19.98;;;17.90;;
60665;SDS011;59128;44.642;21.188;2023-04-06T06:31:12;21.63;;;17.33;;
60665;SDS011;59128;44.642;21.188;2023-04-06T06:33:38;19.58;;;17.48;;
60665;SDS011;59128;44.642;21.188;2023-04-06T06:36:04;19.40;;;17.33;;
60665;SDS011;59128;44.642;21.188;2023-04-06T06:38:31;20.08;;;17.52;;
60665;SDS011;59128;44.642;21.188;2023-04-06T06:40:57;19.77;;;17.73;;
60665;SDS011;59128;44.642;21.188;2023-04-06T06:43:23;19.93;;;17.77;;
60665;SDS011;59128;44.642;21.188;2023-04-06T06:45:49;19.70;;;17.30;;
60665;SDS011;59128;44.642;21.188;2023-04-06T06:48:15;19.83;;;17.73;;
60665;SDS011;59128;44.642;21.188;2023-04-06T06:50:41;18.80;;;16.75;;
60665;SDS011;59128;44.642;21.188;2023-04-06T06:53:07;18.80;;;16.63;;
60665;SDS011;59128;44.642;21.188;2023-04-06T06:55:33;19.45;;;17.35;;
60665;SDS011;59128;44.642;21.188;2023-04-06T06:57:59;17.85;;;16.05;;
60665;SDS011;59128;44.642;21.188;2023-04-06T07:00:25;18.17;;;16.23;;
60665;SDS011;59128;44.642;21.188;2023-04-06T07:02:52;17.60;;;15.80;;
60665;SDS011;59128;44.642;21.188;2023-04-06T07:05:18;18.23;;;16.15;;
60665;SDS011;59128;44.642;21.188;2023-04-06T07:07:44;18.35;;;16.35;;
60665;SDS011;59128;44.642;21.188;2023-04-06T07:10:10;18.75;;;16.75;;
60665;SDS011;59128;44.642;21.188;2023-04-06T07:12:36;19.60;;;16.20;;
60665;SDS011;59128;44.642;21.188;2023-04-06T07:15:02;19.17;;;16.83;;
60665;SDS011;59128;44.642;21.188;2023-04-06T07:17:29;18.77;;;16.80;;
60665;SDS011;59128;44.642;21.188;2023-04-06T07:19:55;20.95;;;15.95;;
60665;SDS011;59128;44.642;21.188;2023-04-06T07:22:21;17.07;;;15.27;;
60665;SDS011;59128;44.642;21.188;2023-04-06T07:24:47;15.75;;;13.70;;
60665;SDS011;59128;44.642;21.188;2023-04-06T07:27:12;15.32;;;13.45;;
60665;SDS011;59128;44.642;21.188;2023-04-06T07:29:39;15.95;;;13.65;;
60665;SDS011;59128;44.642;21.188;2023-04-06T07:32:05;16.00;;;13.68;;
60665;SDS011;59128;44.642;21.188;2023-04-06T07:34:31;14.88;;;12.90;;
60665;SDS011;59128;44.642;21.188;2023-04-06T07:36:57;17.10;;;14.50;;
60665;SDS011;59128;44.642;21.188;2023-04-06T07:39:23;17.90;;;13.98;;
60665;SDS011;59128;44.642;21.188;2023-04-06T07:41:51;16.83;;;14.02;;
60665;SDS011;59128;44.642;21.188;2023-04-06T07:44:17;15.53;;;13.63;;
60665;SDS011;59128;44.642;21.188;2023-04-06T07:46:43;16.40;;;14.18;;
60665;SDS011;59128;44.642;21.188;2023-04-06T07:49:09;15.88;;;13.55;;
60665;SDS011;59128;44.642;21.188;2023-04-06T07:51:36;15.95;;;14.15;;
60665;SDS011;59128;44.642;21.188;2023-04-06T07:54:02;15.18;;;13.57;;
60665;SDS011;59128;44.642;21.188;2023-04-06T07:56:28;14.40;;;12.90;;
60665;SDS011;59128;44.642;21.188;2023-04-06T07:58:54;14.60;;;13.10;;
60665;SDS011;59128;44.642;21.188;2023-04-06T08:01:22;14.20;;;12.70;;
60665;SDS011;59128;44.642;21.188;2023-04-06T08:03:48;14.30;;;12.80;;
60665;SDS011;59128;44.642;21.188;2023-04-06T08:06:15;14.07;;;12.68;;
60665;SDS011;59128;44.642;21.188;2023-04-06T08:08:41;14.97;;;13.37;;
60665;SDS011;59128;44.642;21.188;2023-04-06T08:11:07;14.30;;;12.77;;
60665;SDS011;59128;44.642;21.188;2023-04-06T08:13:33;15.53;;;13.60;;
60665;SDS011;59128;44.642;21.188;2023-04-06T08:16:00;15.93;;;14.27;;
60665;SDS011;59128;44.642;21.188;2023-04-06T08:18:26;20.02;;;15.20;;
60665;SDS011;59128;44.642;21.188;2023-04-06T08:20:52;15.10;;;13.45;;
60665;SDS011;59128;44.642;21.188;2023-04-06T08:23:18;16.00;;;14.10;;
60665;SDS011;59128;44.642;21.188;2023-04-06T08:25:44;14.07;;;12.68;;
60665;SDS011;59128;44.642;21.188;2023-04-06T08:28:10;14.63;;;11.77;;
60665;SDS011;59128;44.642;21.188;2023-04-06T08:30:37;14.33;;;12.90;;
60665;SDS011;59128;44.642;21.188;2023-04-06T08:33:05;13.20;;;11.50;;
60665;SDS011;59128;44.642;21.188;2023-04-06T08:35:31;13.68;;;12.10;;
60665;SDS011;59128;44.642;21.188;2023-04-06T08:37:57;14.15;;;12.35;;
60665;SDS011;59128;44.642;21.188;2023-04-06T08:40:23;13.20;;;11.80;;
60665;SDS011;59128;44.642;21.188;2023-04-06T08:42:50;12.95;;;11.70;;
60665;SDS011;59128;44.642;21.188;2023-04-06T08:45:16;12.65;;;11.35;;
60665;SDS011;59128;44.642;21.188;2023-04-06T08:47:42;11.80;;;10.60;;
60665;SDS011;59128;44.642;21.188;2023-04-06T08:50:09;12.82;;;11.52;;
60665;SDS011;59128;44.642;21.188;2023-04-06T08:52:38;11.13;;;10.00;;
60665;SDS011;59128;44.642;21.188;2023-04-06T08:55:06;11.82;;;10.40;;
60665;SDS011;59128;44.642;21.188;2023-04-06T08:57:32;11.10;;;10.00;;
60665;SDS011;59128;44.642;21.188;2023-04-06T08:59:59;11.95;;;10.27;;
60665;SDS011;59128;44.642;21.188;2023-04-06T09:02:26;12.55;;;11.25;;
60665;SDS011;59128;44.642;21.188;2023-04-06T09:04:53;11.70;;;9.70;;
60665;SDS011;59128;44.642;21.188;2023-04-06T09:07:20;10.00;;;8.98;;
60665;SDS011;59128;44.642;21.188;2023-04-06T09:09:46;9.85;;;8.85;;
60665;SDS011;59128;44.642;21.188;2023-04-06T09:12:22;9.95;;;8.23;;
60665;SDS011;59128;44.642;21.188;2023-04-06T09:14:48;10.38;;;8.90;;
60665;SDS011;59128;44.642;21.188;2023-04-06T09:17:21;9.73;;;8.73;;
60665;SDS011;59128;44.642;21.188;2023-04-06T09:19:48;10.30;;;8.63;;
60665;SDS011;59128;44.642;21.188;2023-04-06T09:22:14;10.88;;;9.05;;
60665;SDS011;59128;44.642;21.188;2023-04-06T09:24:45;9.20;;;7.57;;
60665;SDS011;59128;44.642;21.188;2023-04-06T09:27:11;8.82;;;7.93;;
60665;SDS011;59128;44.642;21.188;2023-04-06T09:29:37;8.93;;;7.53;;
60665;SDS011;59128;44.642;21.188;2023-04-06T09:32:04;13.93;;;8.50;;
60665;SDS011;59128;44.642;21.188;2023-04-06T09:34:30;12.07;;;9.73;;
60665;SDS011;59128;44.642;21.188;2023-04-06T09:36:57;9.02;;;7.82;;
60665;SDS011;59128;44.642;21.188;2023-04-06T09:39:23;9.52;;;8.25;;
60665;SDS011;59128;44.642;21.188;2023-04-06T09:41:50;10.48;;;8.10;;
60665;SDS011;59128;44.642;21.188;2023-04-06T09:44:16;8.00;;;6.70;;
60665;SDS011;59128;44.642;21.188;2023-04-06T09:46:43;8.05;;;7.03;;
60665;SDS011;59128;44.642;21.188;2023-04-06T09:49:10;8.52;;;7.63;;
60665;SDS011;59128;44.642;21.188;2023-04-06T09:51:47;7.45;;;6.22;;
60665;SDS011;59128;44.642;21.188;2023-04-06T09:54:15;7.43;;;6.47;;
60665;SDS011;59128;44.642;21.188;2023-04-06T09:59:12;7.65;;;6.55;;
60665;SDS011;59128;44.642;21.188;2023-04-06T10:01:39;7.25;;;6.55;;
60665;SDS011;59128;44.642;21.188;2023-04-06T10:06:44;11.70;;;7.90;;
60665;SDS011;59128;44.642;21.188;2023-04-06T10:09:12;7.80;;;7.00;;
60665;SDS011;59128;44.642;21.188;2023-04-06T10:11:39;7.78;;;6.50;;
60665;SDS011;59128;44.642;21.188;2023-04-06T10:14:05;7.10;;;6.40;;
60665;SDS011;59128;44.642;21.188;2023-04-06T10:16:31;7.28;;;6.32;;
60665;SDS011;59128;44.642;21.188;2023-04-06T10:19:00;6.50;;;5.90;;
60665;SDS011;59128;44.642;21.188;2023-04-06T10:21:27;6.50;;;5.72;;
60665;SDS011;59128;44.642;21.188;2023-04-06T10:23:57;8.27;;;5.97;;
60665;SDS011;59128;44.642;21.188;2023-04-06T10:26:24;6.03;;;5.43;;
60665;SDS011;59128;44.642;21.188;2023-04-06T10:28:51;5.90;;;5.30;;
60665;SDS011;59128;44.642;21.188;2023-04-06T10:31:27;6.38;;;5.72;;
60665;SDS011;59128;44.642;21.188;2023-04-06T10:33:57;6.28;;;5.65;;
60665;SDS011;59128;44.642;21.188;2023-04-06T10:36:28;7.50;;;6.00;;
60665;SDS011;59128;44.642;21.188;2023-04-06T10:38:58;6.88;;;6.03;;
60665;SDS011;59128;44.642;21.188;2023-04-06T10:41:31;6.47;;;5.50;;
60665;SDS011;59128;44.642;21.188;2023-04-06T10:43:58;6.70;;;5.33;;
60665;SDS011;59128;44.642;21.188;2023-04-06T10:46:26;6.50;;;5.80;;
60665;SDS011;59128;44.642;21.188;2023-04-06T10:48:52;6.00;;;5.40;;
60665;SDS011;59128;44.642;21.188;2023-04-06T10:51:19;6.60;;;5.78;;
60665;SDS011;59128;44.642;21.188;2023-04-06T10:53:49;6.78;;;5.30;;
60665;SDS011;59128;44.642;21.188;2023-04-06T10:56:18;6.00;;;5.40;;
60665;SDS011;59128;44.642;21.188;2023-04-06T10:58:47;6.40;;;5.50;;
60665;SDS011;59128;44.642;21.188;2023-04-06T11:01:14;6.53;;;5.40;;
60665;SDS011;59128;44.642;21.188;2023-04-06T11:03:48;6.18;;;5.40;;
60665;SDS011;59128;44.642;21.188;2023-04-06T11:06:18;7.00;;;5.10;;
60665;SDS011;59128;44.642;21.188;2023-04-06T11:08:44;6.30;;;5.43;;
60665;SDS011;59128;44.642;21.188;2023-04-06T11:11:15;6.93;;;5.53;;
60665;SDS011;59128;44.642;21.188;2023-04-06T11:16:19;6.15;;;5.45;;
60665;SDS011;59128;44.642;21.188;2023-04-06T11:21:14;7.20;;;5.95;;
60665;SDS011;59128;44.642;21.188;2023-04-06T11:23:40;10.07;;;6.30;;
60665;SDS011;59128;44.642;21.188;2023-04-06T11:26:10;10.63;;;7.43;;
60665;SDS011;59128;44.642;21.188;2023-04-06T11:28:36;6.95;;;6.10;;
60665;SDS011;59128;44.642;21.188;2023-04-06T11:31:02;6.88;;;5.88;;
60665;SDS011;59128;44.642;21.188;2023-04-06T11:33:28;6.95;;;6.25;;
60665;SDS011;59128;44.642;21.188;2023-04-06T11:35:58;6.85;;;6.25;;
60665;SDS011;59128;44.642;21.188;2023-04-06T11:38:24;7.87;;;6.37;;
60665;SDS011;59128;44.642;21.188;2023-04-06T11:40:53;10.15;;;6.43;;
60665;SDS011;59128;44.642;21.188;2023-04-06T11:43:25;7.22;;;5.80;;
60665;SDS011;59128;44.642;21.188;2023-04-06T11:45:52;8.35;;;7.13;;
60665;SDS011;59128;44.642;21.188;2023-04-06T11:48:25;8.03;;;6.87;;
60665;SDS011;59128;44.642;21.188;2023-04-06T11:50:55;7.45;;;6.55;;
60665;SDS011;59128;44.642;21.188;2023-04-06T11:53:21;7.68;;;6.70;;
60665;SDS011;59128;44.642;21.188;2023-04-06T11:55:47;8.10;;;6.75;;
60665;SDS011;59128;44.642;21.188;2023-04-06T11:58:13;8.60;;;6.87;;
60665;SDS011;59128;44.642;21.188;2023-04-06T12:00:39;8.00;;;7.00;;
60665;SDS011;59128;44.642;21.188;2023-04-06T12:03:10;7.65;;;6.65;;
60665;SDS011;59128;44.642;21.188;2023-04-06T12:05:36;8.23;;;6.45;;
60665;SDS011;59128;44.642;21.188;2023-04-06T12:08:02;8.77;;;7.10;;
60665;SDS011;59128;44.642;21.188;2023-04-06T12:10:28;8.57;;;7.25;;
60665;SDS011;59128;44.642;21.188;2023-04-06T12:12:54;8.43;;;7.53;;
60665;SDS011;59128;44.642;21.188;2023-04-06T12:15:20;7.88;;;6.97;;
60665;SDS011;59128;44.642;21.188;2023-04-06T12:17:46;10.15;;;7.47;;
60665;SDS011;59128;44.642;21.188;2023-04-06T12:20:12;8.93;;;7.57;;
60665;SDS011;59128;44.642;21.188;2023-04-06T12:22:38;9.43;;;8.05;;
60665;SDS011;59128;44.642;21.188;2023-04-06T12:25:05;9.93;;;8.02;;
60665;SDS011;59128;44.642;21.188;2023-04-06T12:27:34;9.80;;;8.18;;
60665;SDS011;59128;44.642;21.188;2023-04-06T12:30:00;10.23;;;7.80;;
60665;SDS011;59128;44.642;21.188;2023-04-06T12:32:27;8.60;;;7.45;;
60665;SDS011;59128;44.642;21.188;2023-04-06T12:34:53;8.13;;;7.32;;
60665;SDS011;59128;44.642;21.188;2023-04-06T12:37:19;8.20;;;7.38;;
60665;SDS011;59128;44.642;21.188;2023-04-06T12:39:46;9.50;;;8.38;;
60665;SDS011;59128;44.642;21.188;2023-04-06T12:42:12;9.50;;;8.30;;
60665;SDS011;59128;44.642;21.188;2023-04-06T12:44:38;9.68;;;8.25;;
60665;SDS011;59128;44.642;21.188;2023-04-06T12:47:04;10.38;;;8.40;;
60665;SDS011;59128;44.642;21.188;2023-04-06T12:49:32;9.82;;;8.00;;
60665;SDS011;59128;44.642;21.188;2023-04-06T12:51:58;10.27;;;8.57;;
60665;SDS011;59128;44.642;21.188;2023-04-06T12:54:24;9.83;;;8.50;;
60665;SDS011;59128;44.642;21.188;2023-04-06T12:56:51;10.88;;;8.57;;
60665;SDS011;59128;44.642;21.188;2023-04-06T12:59:17;9.00;;;7.80;;
60665;SDS011;59128;44.642;21.188;2023-04-06T13:01:43;8.65;;;7.75;;
60665;SDS011;59128;44.642;21.188;2023-04-06T13:04:10;8.52;;;7.63;;
60665;SDS011;59128;44.642;21.188;2023-04-06T13:06:36;8.85;;;7.95;;
60665;SDS011;59128;44.642;21.188;2023-04-06T13:09:03;9.65;;;7.88;;
60665;SDS011;59128;44.642;21.188;2023-04-06T13:11:31;7.88;;;6.88;;
60665;SDS011;59128;44.642;21.188;2023-04-06T13:13:57;11.15;;;8.20;;
60665;SDS011;59128;44.642;21.188;2023-04-06T13:16:31;9.82;;;8.13;;
60665;SDS011;59128;44.642;21.188;2023-04-06T13:18:58;9.25;;;7.90;;
60665;SDS011;59128;44.642;21.188;2023-04-06T13:21:24;9.23;;;8.00;;
60665;SDS011;59128;44.642;21.188;2023-04-06T13:23:50;9.15;;;7.95;;
60665;SDS011;59128;44.642;21.188;2023-04-06T13:26:16;12.87;;;9.40;;
60665;SDS011;59128;44.642;21.188;2023-04-06T13:28:42;11.90;;;9.27;;
60665;SDS011;59128;44.642;21.188;2023-04-06T13:31:08;14.75;;;11.80;;
60665;SDS011;59128;44.642;21.188;2023-04-06T13:33:35;13.73;;;10.93;;
60665;SDS011;59128;44.642;21.188;2023-04-06T13:36:01;9.55;;;7.80;;
60665;SDS011;59128;44.642;21.188;2023-04-06T13:38:27;8.63;;;7.38;;
60665;SDS011;59128;44.642;21.188;2023-04-06T13:40:53;9.63;;;7.63;;
60665;SDS011;59128;44.642;21.188;2023-04-06T13:43:20;10.82;;;8.98;;
60665;SDS011;59128;44.642;21.188;2023-04-06T13:45:49;10.70;;;9.60;;
60665;SDS011;59128;44.642;21.188;2023-04-06T13:48:16;18.58;;;16.60;;
60665;SDS011;59128;44.642;21.188;2023-04-06T13:50:42;19.48;;;16.35;;
60665;SDS011;59128;44.642;21.188;2023-04-06T13:53:08;16.35;;;14.13;;
60665;SDS011;59128;44.642;21.188;2023-04-06T13:55:34;15.88;;;13.52;;
60665;SDS011;59128;44.642;21.188;2023-04-06T13:58:01;24.52;;;20.75;;
60665;SDS011;59128;44.642;21.188;2023-04-06T14:00:27;16.98;;;14.68;;
60665;SDS011;59128;44.642;21.188;2023-04-06T14:02:53;14.80;;;11.63;;
60665;SDS011;59128;44.642;21.188;2023-04-06T14:05:20;19.52;;;14.38;;
60665;SDS011;59128;44.642;21.188;2023-04-06T14:07:46;18.05;;;14.90;;
60665;SDS011;59128;44.642;21.188;2023-04-06T14:10:12;23.70;;;18.83;;
60665;SDS011;59128;44.642;21.188;2023-04-06T14:12:40;27.63;;;24.40;;
60665;SDS011;59128;44.642;21.188;2023-04-06T14:15:06;20.30;;;16.95;;
60665;SDS011;59128;44.642;21.188;2023-04-06T14:17:32;20.23;;;18.02;;
60665;SDS011;59128;44.642;21.188;2023-04-06T14:19:58;14.80;;;12.73;;
60665;SDS011;59128;44.642;21.188;2023-04-06T14:22:25;16.35;;;14.05;;